Time;durP1;ratioP1;P1;durP2;ratioP2;P2;SDS_P1;SDS_P2;PMS_P1;PMS_P2;Temp;Humidity;BMP_temperature;BMP_pressure;BME280_temperature;BME280_humidity;BME280_pressure;Samples;Min_cycle;Max_cycle;Signal;HPM_P1;HPM_P2
2023/05/06 00:00:48;;;;;;;4.55;3.38;;;;;;;17.63;95.59;152415.88;5036812;28;20134;-86
2023/05/06 00:03:14;;;;;;;4.45;3.70;;;;;;;17.91;92.56;152486.16;5036801;28;20088;-86
2023/05/06 00:05:40;;;;;;;6.53;3.28;;;;;;;17.94;90.52;152493.72;5036649;28;20057;-86
2023/05/06 00:08:06;;;;;;;5.10;3.13;;;;;;;18.05;89.59;152521.38;5036189;28;20033;-87
2023/05/06 00:10:31;;;;;;;4.18;2.88;;;;;;;18.07;88.80;152526.38;5036493;28;20459;-87
2023/05/06 00:12:57;;;;;;;4.65;2.85;;;;;;;17.89;90.62;152481.16;5036487;28;20025;-89
2023/05/06 00:15:22;;;;;;;4.03;3.08;;;;;;;17.76;92.52;152448.50;5036499;28;20120;-88
2023/05/06 00:17:50;;;;;;;3.78;2.75;;;;;;;17.83;92.46;152466.06;5036359;28;20033;-86
2023/05/06 00:20:16;;;;;;;5.30;2.75;;;;;;;17.80;92.26;152458.53;5036505;28;20128;-86
2023/05/06 00:22:41;;;;;;;6.65;3.10;;;;;;;17.42;95.19;152363.06;5036835;28;20471;-87
2023/05/06 00:25:07;;;;;;;4.45;2.63;;;;;;;17.24;98.20;152317.81;5036788;28;20029;-86
2023/05/06 00:27:33;;;;;;;6.25;3.08;;;;;;;17.13;98.39;152291.50;5036610;28;20344;-87
2023/05/06 00:29:58;;;;;;;5.78;3.10;;;;;;;17.20;96.95;152307.81;5037178;28;20042;-86
2023/05/06 00:32:24;;;;;;;6.78;3.08;;;;;;;17.25;95.35;152320.34;5036646;28;20026;-85
2023/05/06 00:34:49;;;;;;;5.20;2.90;;;;;;;16.97;97.52;152252.53;5036303;28;20449;-87
2023/05/06 00:37:15;;;;;;;5.68;3.25;;;;;;;16.97;97.54;152252.53;5039211;28;20033;-86
2023/05/06 00:39:40;;;;;;;6.55;3.20;;;;;;;17.03;96.63;152266.38;5035191;28;20068;-85
2023/05/06 00:42:06;;;;;;;6.55;3.08;;;;;;;16.99;97.29;152257.59;5039082;28;20038;-85
2023/05/06 00:44:32;;;;;;;6.70;3.17;;;;;;;16.77;98.47;152202.34;5040972;28;20521;-85
2023/05/06 00:46:59;;;;;;;7.43;2.72;;;;;;;16.68;99.53;152179.75;5036871;28;20083;-86
2023/05/06 00:49:26;;;;;;;6.57;3.42;;;;;;;16.72;99.90;152189.81;5034933;28;20029;-86
2023/05/06 00:51:53;;;;;;;6.38;2.83;;;;;;;16.76;99.42;152198.59;5036066;28;20072;-84
2023/05/06 00:54:18;;;;;;;3.60;2.85;;;;;;;16.95;97.58;152246.28;5034571;28;20037;-84
2023/05/06 00:56:44;;;;;;;6.97;3.00;;;;;;;16.86;98.29;152223.69;5036133;28;20415;-86
2023/05/06 00:59:10;;;;;;;5.38;3.03;;;;;;;16.86;98.65;152224.97;5036450;28;20443;-87
2023/05/06 01:01:36;;;;;;;4.10;2.70;;;;;;;16.87;98.58;152227.44;5035794;28;20386;-87
2023/05/06 01:04:02;;;;;;;3.83;2.72;;;;;;;16.88;97.77;152229.97;5034318;28;20033;-86
2023/05/06 01:06:27;;;;;;;4.93;2.58;;;;;;;16.88;98.38;152228.69;5034616;28;20033;-85
2023/05/06 01:09:12;;;;;;;10.10;3.40;;;;;;;17.05;96.70;152271.38;5036140;28;20414;-86
2023/05/06 01:11:57;;;;;;;4.13;3.40;;;;;;;17.12;96.37;152287.72;5036365;28;20112;-88
2023/05/06 01:14:34;;;;;;;6.43;3.85;;;;;;;17.25;95.94;152320.34;5018777;28;20321;-88
2023/05/06 01:17:03;;;;;;;7.38;3.40;;;;;;;17.32;96.22;152337.94;5024828;28;20034;-86
2023/05/06 01:19:47;;;;;;;12.00;3.30;;;;;;;17.13;98.59;152290.22;5016753;28;20049;-88
2023/05/06 01:22:15;;;;;;;3.60;2.88;;;;;;;16.99;99.87;152257.59;5022510;28;20093;-86
2023/05/06 01:24:42;;;;;;;5.28;3.38;;;;;;;17.01;100.00;152262.59;5025403;28;20099;-85
2023/05/06 01:27:10;;;;;;;8.75;3.63;;;;;;;17.08;100.00;152277.66;5043118;28;20037;-88
2023/05/06 01:29:38;;;;;;;8.85;3.90;;;;;;;17.02;100.00;152265.13;5041970;28;20052;-87
2023/05/06 01:32:31;;;;;;;8.52;3.80;;;;;;;16.93;100.00;152242.53;5042609;28;20100;-85
2023/05/06 01:35:22;;;;;;;5.40;3.95;;;;;;;16.82;100.00;152213.66;5042998;28;20048;-85
2023/05/06 01:38:21;;;;;;;6.20;3.83;;;;;;;17.05;100.00;152272.66;5027289;28;20116;-87
2023/05/06 01:40:53;;;;;;;6.60;4.18;;;;;;;17.20;99.49;152307.81;5034817;28;20041;-86
2023/05/06 01:43:20;;;;;;;6.63;4.00;;;;;;;16.68;100.00;152178.50;5035064;28;20475;-87
2023/05/06 01:45:52;;;;;;;3.90;3.47;;;;;;;16.59;100.00;152157.19;5034705;28;20089;-87
2023/05/06 01:48:26;;;;;;;6.82;3.58;;;;;;;16.61;100.00;152162.19;5033399;28;20123;-84
2023/05/06 01:50:54;;;;;;;7.13;3.33;;;;;;;16.56;100.00;152149.66;5033366;28;20034;-86
2023/05/06 01:53:19;;;;;;;3.60;3.00;;;;;;;16.63;100.00;152167.22;5035080;28;20026;-86
2023/05/06 01:55:45;;;;;;;7.50;3.20;;;;;;;16.68;100.00;152178.50;5034477;28;20044;-86
2023/05/06 01:58:10;;;;;;;6.50;3.38;;;;;;;16.77;100.00;152202.34;5032388;28;20088;-87
2023/05/06 02:00:38;;;;;;;6.00;3.22;;;;;;;16.58;100.00;152153.38;5034333;28;20116;-85
2023/05/06 02:03:04;;;;;;;6.07;3.17;;;;;;;16.52;100.00;152140.81;5033821;28;20108;-87
2023/05/06 02:05:29;;;;;;;4.13;3.40;;;;;;;16.49;100.00;152132.03;5029934;28;20447;-86
2023/05/06 02:07:57;;;;;;;6.47;3.50;;;;;;;16.36;100.00;152099.41;5028485;28;20038;-87
2023/05/06 02:10:22;;;;;;;5.43;3.78;;;;;;;16.03;100.00;152017.84;5034311;28;20368;-87
2023/05/06 02:12:56;;;;;;;5.47;3.15;;;;;;;15.84;100.00;151970.19;5033022;28;20037;-86
2023/05/06 02:15:21;;;;;;;4.80;3.70;;;;;;;15.84;100.00;151970.19;5034194;28;20072;-82
2023/05/06 02:17:48;;;;;;;5.20;3.63;;;;;;;15.71;100.00;151938.78;5027587;28;20112;-87
2023/05/06 02:20:13;;;;;;;7.13;4.10;;;;;;;15.52;100.00;151891.16;5051081;28;20063;-82
2023/05/06 02:22:39;;;;;;;9.50;4.80;;;;;;;15.57;100.00;151903.72;5040966;28;20512;-86
2023/05/06 02:25:05;;;;;;;4.93;4.05;;;;;;;15.61;100.00;151912.50;5034119;28;20030;-87
2023/05/06 02:27:30;;;;;;;6.57;4.68;;;;;;;15.88;100.00;151981.44;5032904;28;20394;-86
2023/05/06 02:29:56;;;;;;;9.35;4.35;;;;;;;15.72;100.00;151941.31;5034515;28;20037;-88
2023/05/06 02:32:22;;;;;;;6.35;4.57;;;;;;;15.73;100.00;151943.84;5033032;28;20032;-90
2023/05/06 02:34:47;;;;;;;9.63;4.88;;;;;;;15.92;100.00;151991.50;5034173;28;20121;-89
2023/05/06 02:37:13;;;;;;;7.32;4.70;;;;;;;15.65;100.00;151923.75;5032974;28;20124;-91
2023/05/06 02:39:38;;;;;;;7.72;5.03;;;;;;;15.45;100.00;151873.53;5032732;28;20041;-89
2023/05/06 02:42:04;;;;;;;10.52;5.18;;;;;;;15.51;100.00;151888.66;5033962;28;20119;-88
2023/05/06 02:44:30;;;;;;;6.30;4.82;;;;;;;15.31;100.00;151839.66;5034156;28;20104;-88
2023/05/06 02:46:57;;;;;;;15.48;4.35;;;;;;;15.30;100.00;151835.94;5033853;28;20116;-87
2023/05/06 02:49:23;;;;;;;6.90;4.85;;;;;;;15.59;100.00;151908.72;5032725;28;20533;-86
2023/05/06 02:51:48;;;;;;;6.78;4.68;;;;;;;15.43;100.00;151868.53;5012316;28;20038;-86
2023/05/06 02:54:14;;;;;;;7.47;4.38;;;;;;;15.27;100.00;151828.41;5016609;28;20058;-85
2023/05/06 02:56:42;;;;;;;10.70;4.68;;;;;;;15.24;100.00;151820.91;5049186;28;20041;-84
2023/05/06 02:59:08;;;;;;;5.53;4.13;;;;;;;15.31;100.00;151839.66;5048611;28;20132;-88
2023/05/06 03:01:33;;;;;;;6.07;4.00;;;;;;;15.45;100.00;151873.53;5037612;28;20053;-86
2023/05/06 03:03:59;;;;;;;7.45;4.10;;;;;;;15.28;100.00;151830.94;5037976;28;20398;-86
2023/05/06 03:06:25;;;;;;;5.38;3.60;;;;;;;15.38;100.00;151855.97;5037341;28;20064;-88
2023/05/06 03:08:50;;;;;;;5.57;3.53;;;;;;;15.46;100.00;151876.06;5027929;28;20072;-90
2023/05/06 03:11:16;;;;;;;4.90;3.75;;;;;;;15.44;100.00;151871.06;5038201;28;20112;-87
2023/05/06 03:13:42;;;;;;;6.50;3.88;;;;;;;15.62;100.00;151916.22;5036945;28;20021;-88
2023/05/06 03:16:12;;;;;;;6.95;4.30;;;;;;;15.47;100.00;151878.59;5036676;28;20021;-89
2023/05/06 03:18:37;;;;;;;8.77;4.00;;;;;;;15.57;100.00;151903.72;5034737;28;20490;-90
2023/05/06 03:21:03;;;;;;;10.38;4.20;;;;;;;15.37;100.00;151854.75;5037837;28;20038;-89
2023/05/06 03:23:30;;;;;;;5.57;3.70;;;;;;;15.44;100.00;151872.28;5036172;28;20033;-87
2023/05/06 03:25:56;;;;;;;5.55;3.40;;;;;;;15.56;100.00;151899.94;5035641;28;20549;-86
2023/05/06 03:28:22;;;;;;;7.43;4.00;;;;;;;15.26;100.00;151825.91;5034356;28;20049;-88
2023/05/06 03:30:48;;;;;;;5.53;3.72;;;;;;;15.18;100.00;151805.88;5034420;28;20037;-87
2023/05/06 03:33:14;;;;;;;8.52;3.92;;;;;;;15.11;100.00;151788.31;5034260;28;20112;-87
2023/05/06 03:35:41;;;;;;;6.65;3.97;;;;;;;14.91;100.00;151739.41;5034198;28;20447;-87
2023/05/06 03:38:06;;;;;;;6.43;3.70;;;;;;;15.06;100.00;151777.00;5033910;28;20064;-87
2023/05/06 03:40:40;;;;;;;8.40;3.78;;;;;;;15.14;100.00;151797.09;5034125;28;20033;-90
2023/05/06 03:43:06;;;;;;;6.68;3.95;;;;;;;15.30;100.00;151835.94;5034026;28;20075;-87
2023/05/06 03:45:31;;;;;;;7.22;4.32;;;;;;;15.35;100.00;151849.72;5033409;28;20025;-87
2023/05/06 03:47:59;;;;;;;8.35;3.80;;;;;;;15.37;100.00;151853.50;5033491;28;20106;-89
2023/05/06 03:50:26;;;;;;;6.68;4.00;;;;;;;15.32;100.00;151842.19;5033898;28;20041;-89
2023/05/06 03:52:52;;;;;;;9.57;4.00;;;;;;;15.55;100.00;151898.66;5033713;28;20105;-88
2023/05/06 03:55:20;;;;;;;5.20;3.72;;;;;;;15.51;100.00;151888.66;5033782;28;20041;-89
2023/05/06 03:57:46;;;;;;;9.60;4.15;;;;;;;15.68;100.00;151931.28;5032499;28;20394;-88
2023/05/06 04:00:14;;;;;;;7.40;3.95;;;;;;;15.61;100.00;151913.72;5036220;28;20154;-86
2023/05/06 04:02:45;;;;;;;8.57;4.13;;;;;;;15.41;100.00;151864.75;5013848;28;20431;-89
2023/05/06 04:05:18;;;;;;;8.70;4.30;;;;;;;15.36;100.00;151850.97;5020178;28;20513;-86
2023/05/06 04:07:44;;;;;;;7.25;4.93;;;;;;;15.09;100.00;151783.25;5033167;28;20046;-88
2023/05/06 04:10:10;;;;;;;16.50;4.88;;;;;;;15.21;100.00;151813.38;5033384;28;20394;-87
2023/05/06 04:12:36;;;;;;;11.10;4.75;;;;;;;15.28;100.00;151830.94;5033970;28;20043;-89
2023/05/06 04:15:02;;;;;;;12.68;5.30;;;;;;;15.16;100.00;151800.81;5034119;28;20560;-88
2023/05/06 04:17:28;;;;;;;5.60;4.07;;;;;;;15.41;100.00;151864.75;5033047;28;20026;-84
2023/05/06 04:19:54;;;;;;;8.27;4.80;;;;;;;15.59;100.00;151908.72;5028658;28;20038;-89
2023/05/06 04:22:20;;;;;;;10.75;4.70;;;;;;;15.31;100.00;151839.66;5015232;28;20040;-87
2023/05/06 04:24:45;;;;;;;6.05;4.60;;;;;;;15.67;100.00;151928.81;5014075;28;20048;-90
2023/05/06 04:27:11;;;;;;;7.13;4.53;;;;;;;15.30;100.00;151837.19;5025403;28;20041;-87
2023/05/06 04:29:39;;;;;;;6.53;4.97;;;;;;;15.27;100.00;151829.69;5033008;28;20041;-88
2023/05/06 04:32:06;;;;;;;7.20;4.40;;;;;;;15.44;100.00;151871.06;5034808;28;20040;-90
2023/05/06 04:34:35;;;;;;;6.93;3.90;;;;;;;15.72;100.00;151940.06;5033365;28;20502;-88
2023/05/06 04:37:00;;;;;;;8.45;4.65;;;;;;;15.73;100.00;151943.84;5033179;28;20040;-86
2023/05/06 04:39:38;;;;;;;9.75;4.10;;;;;;;15.82;100.00;151966.41;5033289;28;20045;-85
2023/05/06 04:42:05;;;;;;;8.48;4.55;;;;;;;16.11;100.00;152036.69;5032781;28;20029;-86
2023/05/06 04:44:37;;;;;;;6.70;3.58;;;;;;;16.27;100.00;152076.81;5038103;28;20471;-87
2023/05/06 04:47:10;;;;;;;9.57;4.90;;;;;;;16.07;100.00;152026.63;5036113;28;20033;-87
2023/05/06 04:49:37;;;;;;;12.68;4.32;;;;;;;15.68;100.00;151930.00;5019635;28;20044;-86
2023/05/06 04:52:05;;;;;;;5.10;3.97;;;;;;;15.83;100.00;151968.94;5040098;28;20075;-89
2023/05/06 04:54:31;;;;;;;6.38;4.50;;;;;;;15.83;100.00;151967.66;5038812;28;20403;-89
2023/05/06 04:57:02;;;;;;;7.63;4.10;;;;;;;15.91;100.00;151987.72;5035776;28;20107;-88
2023/05/06 04:59:52;;;;;;;8.25;4.05;;;;;;;16.00;100.00;152010.31;5048051;28;20056;-85
2023/05/06 05:02:18;;;;;;;7.97;4.65;;;;;;;16.09;100.00;152031.63;5052993;28;20029;-89
2023/05/06 05:04:44;;;;;;;5.90;4.35;;;;;;;15.69;100.00;151933.81;5054587;28;20034;-89
2023/05/06 05:07:10;;;;;;;12.18;4.97;;;;;;;15.58;100.00;151906.19;5050543;28;20033;-88
2023/05/06 05:09:37;;;;;;;5.53;4.70;;;;;;;15.77;100.00;151952.63;5053376;28;20009;-87
2023/05/06 05:12:03;;;;;;;7.15;5.22;;;;;;;16.02;100.00;152015.31;5056464;28;20040;-85
2023/05/06 05:14:34;;;;;;;7.13;4.80;;;;;;;16.29;100.00;152081.81;5057279;28;20040;-86
2023/05/06 05:17:00;;;;;;;9.05;4.68;;;;;;;16.50;100.00;152134.56;5055267;28;20057;-90
2023/05/06 05:19:27;;;;;;;12.60;4.80;;;;;;;16.58;100.00;152154.66;5052239;28;20033;-85
2023/05/06 05:21:53;;;;;;;7.93;5.35;;;;;;;16.58;100.00;152154.66;5038646;28;20029;-85
2023/05/06 05:24:23;;;;;;;11.52;5.03;;;;;;;16.59;100.00;152157.19;5023042;28;20056;-84
2023/05/06 05:26:49;;;;;;;12.43;4.70;;;;;;;17.04;100.00;152270.13;5046456;28;20065;-82
2023/05/06 05:29:15;;;;;;;10.10;4.93;;;;;;;17.22;100.00;152314.09;5053283;28;20041;-84
2023/05/06 05:31:41;;;;;;;7.93;4.90;;;;;;;17.29;100.00;152330.41;5055366;28;20029;-85
2023/05/06 05:34:07;;;;;;;7.97;4.90;;;;;;;17.28;100.00;152329.16;5056455;28;20022;-82
2023/05/06 05:36:32;;;;;;;13.55;4.75;;;;;;;17.77;100.00;152451.00;5039164;28;20196;-85
2023/05/06 05:39:01;;;;;;;9.63;5.50;;;;;;;17.42;100.00;152363.06;5054264;28;20045;-85
2023/05/06 05:41:28;;;;;;;14.40;5.00;;;;;;;17.92;100.00;152488.69;5052149;28;20032;-83
2023/05/06 05:43:57;;;;;;;17.75;6.25;;;;;;;18.02;100.00;152512.56;5051905;28;20029;-82
2023/05/06 05:46:24;;;;;;;12.30;5.70;;;;;;;18.50;100.00;152631.94;5052171;28;20033;-86
2023/05/06 05:48:55;;;;;;;7.75;5.32;;;;;;;18.60;100.00;152657.09;5050102;28;20041;-81
2023/05/06 05:51:21;;;;;;;9.45;5.22;;;;;;;19.12;100.00;152785.31;5046287;28;20041;-86
2023/05/06 05:53:47;;;;;;;6.65;4.78;;;;;;;20.38;92.95;153101.03;5051465;28;20029;-84
2023/05/06 05:56:14;;;;;;;8.85;4.68;;;;;;;21.48;84.36;153374.19;5052093;28;20068;-83
2023/05/06 05:58:40;;;;;;;7.55;4.18;;;;;;;21.81;79.53;153457.31;5039661;28;20045;-86
2023/05/06 06:01:07;;;;;;;8.10;3.90;;;;;;;21.80;75.70;153454.81;5033041;28;20116;-85
2023/05/06 06:03:34;;;;;;;13.63;4.00;;;;;;;20.97;81.54;153247.03;5026334;28;20112;-84
2023/05/06 06:06:00;;;;;;;7.68;3.67;;;;;;;21.77;76.17;153446.00;5032852;28;20092;-89
2023/05/06 06:08:28;;;;;;;6.72;3.63;;;;;;;22.02;74.41;153510.25;5015679;28;20083;-86
2023/05/06 06:10:55;;;;;;;14.63;4.15;;;;;;;22.19;74.25;153550.56;5031753;28;20472;-85
2023/05/06 06:13:28;;;;;;;10.50;4.40;;;;;;;21.97;74.00;153496.44;5032305;28;20171;-85
2023/05/06 06:15:54;;;;;;;11.00;4.50;;;;;;;21.19;79.09;153301.19;5032473;28;20099;-86
2023/05/06 06:18:20;;;;;;;12.65;4.25;;;;;;;21.16;79.31;153294.91;5034099;28;20065;-84
2023/05/06 06:20:45;;;;;;;19.92;4.43;;;;;;;22.91;69.19;153732.03;5032806;28;20065;-85
2023/05/06 06:23:13;;;;;;;9.35;3.88;;;;;;;22.62;69.14;153660.16;5032157;28;20037;-89
2023/05/06 06:25:42;;;;;;;5.93;3.78;;;;;;;23.53;64.00;153885.88;5029795;28;20048;-85
2023/05/06 06:28:08;;;;;;;7.60;3.50;;;;;;;23.91;62.79;153980.41;5037088;28;20081;-88
2023/05/06 06:30:34;;;;;;;10.90;3.78;;;;;;;25.33;55.10;154334.94;5019549;28;20080;-84
2023/05/06 06:33:00;;;;;;;5.72;3.47;;;;;;;25.69;51.57;154427.13;5033169;28;20022;-88
2023/05/06 06:35:26;;;;;;;4.65;3.22;;;;;;;26.53;50.02;154635.50;5018580;28;20113;-86
2023/05/06 06:37:52;;;;;;;14.38;3.67;;;;;;;26.19;49.38;154552.16;5035993;28;20041;-85
2023/05/06 06:40:18;;;;;;;7.82;3.85;;;;;;;25.92;50.10;154483.94;5036367;28;20471;-83
2023/05/06 06:42:45;;;;;;;10.80;3.50;;;;;;;26.67;48.94;154670.88;5038100;28;20163;-89
2023/05/06 06:45:47;;;;;;;5.05;3.17;;;;;;;26.55;48.49;154640.53;5037545;28;20029;-83
2023/05/06 06:48:15;;;;;;;10.90;3.60;;;;;;;26.22;49.85;154557.25;5037733;28;20040;-84
2023/05/06 06:50:44;;;;;;;11.40;4.00;;;;;;;25.63;51.30;154410.72;5038093;28;20041;-83
2023/05/06 06:53:10;;;;;;;6.82;2.78;;;;;;;25.86;50.75;154468.78;5037474;28;20045;-85
2023/05/06 06:55:35;;;;;;;4.57;2.70;;;;;;;26.49;50.18;154625.38;5035826;28;20490;-84
2023/05/06 06:58:07;;;;;;;6.93;3.05;;;;;;;27.42;46.59;154857.84;5035690;28;20060;-87
2023/05/06 07:00:35;;;;;;;8.75;3.08;;;;;;;27.42;47.11;154857.84;5035687;28;20040;-88
2023/05/06 07:03:01;;;;;;;5.93;2.97;;;;;;;26.08;50.70;154523.09;5036552;28;20089;-85
2023/05/06 07:05:27;;;;;;;6.30;3.45;;;;;;;26.89;47.19;154726.47;5036700;28;20038;-86
2023/05/06 07:07:52;;;;;;;4.22;3.15;;;;;;;26.27;48.17;154571.13;5036135;28;20030;-86
2023/05/06 07:10:18;;;;;;;7.70;3.33;;;;;;;25.67;50.03;154420.84;5036159;28;20034;-86
2023/05/06 07:12:43;;;;;;;7.53;3.80;;;;;;;25.06;53.39;154268.06;5036817;28;20037;-87
2023/05/06 07:15:09;;;;;;;6.30;3.50;;;;;;;26.71;49.88;154682.22;5037119;28;20029;-86
2023/05/06 07:17:35;;;;;;;6.43;3.67;;;;;;;26.79;49.03;154701.16;5036193;28;20068;-87
2023/05/06 07:20:01;;;;;;;7.70;4.00;;;;;;;25.78;51.99;154448.63;5034958;28;20108;-83
2023/05/06 07:22:27;;;;;;;7.93;3.95;;;;;;;26.42;47.73;154607.69;5035733;28;20030;-84
2023/05/06 07:24:53;;;;;;;8.88;5.25;;;;;;;26.75;45.86;154689.84;5021839;28;20053;-85
2023/05/06 07:27:19;;;;;;;6.20;4.40;;;;;;;26.25;48.40;154564.81;5027222;28;20407;-84
2023/05/06 07:29:44;;;;;;;10.18;4.90;;;;;;;25.93;49.93;154486.47;5021854;28;20106;-84
2023/05/06 07:32:10;;;;;;;7.07;5.13;;;;;;;26.88;49.08;154722.72;5035529;28;20544;-84
2023/05/06 07:34:37;;;;;;;7.95;5.00;;;;;;;26.52;48.23;154632.97;5017730;28;20030;-85
2023/05/06 07:37:03;;;;;;;11.80;5.18;;;;;;;26.89;47.24;154726.47;5033920;28;20060;-84
2023/05/06 07:39:29;;;;;;;10.07;5.28;;;;;;;27.46;44.53;154869.28;5021663;28;20483;-83
2023/05/06 07:41:55;;;;;;;13.02;5.60;;;;;;;27.34;43.27;154838.94;5034910;28;20541;-83
2023/05/06 07:44:21;;;;;;;9.35;5.80;;;;;;;27.92;41.73;154984.28;5025610;28;20058;-85
2023/05/06 07:46:47;;;;;;;8.75;4.95;;;;;;;28.91;39.15;155230.88;5034927;28;20075;-83
2023/05/06 07:49:12;;;;;;;61.90;9.38;;;;;;;28.36;40.23;155093.03;5015665;28;20038;-83
2023/05/06 07:51:40;;;;;;;89.88;10.10;;;;;;;29.86;37.08;155468.78;5028949;28;20044;-82
2023/05/06 07:54:06;;;;;;;90.28;9.38;;;;;;;29.35;37.98;155342.22;5024602;28;20029;-83
2023/05/06 07:56:31;;;;;;;34.70;7.20;;;;;;;29.44;37.87;155363.72;5033250;28;20406;-85
2023/05/06 07:58:58;;;;;;;48.13;8.38;;;;;;;28.37;39.41;155096.81;5033884;28;20026;-84
2023/05/06 08:01:24;;;;;;;226.77;23.33;;;;;;;27.89;39.70;154976.69;5034448;28;20454;-83
2023/05/06 08:03:50;;;;;;;8.23;4.53;;;;;;;27.76;39.46;154942.56;5027213;28;20038;-84
2023/05/06 08:06:22;;;;;;;14.43;4.70;;;;;;;28.00;38.97;155004.53;5024619;28;20068;-84
2023/05/06 08:09:04;;;;;;;8.27;4.03;;;;;;;28.26;38.50;155067.75;5029609;28;20032;-85
2023/05/06 08:11:29;;;;;;;6.25;4.28;;;;;;;28.78;37.84;155198.00;5039771;28;20065;-82
2023/05/06 08:13:55;;;;;;;9.02;4.50;;;;;;;28.23;38.10;155062.72;5025947;28;20110;-83
2023/05/06 08:16:21;;;;;;;12.18;5.72;;;;;;;28.65;38.12;155167.63;5028187;28;20105;-84
2023/05/06 08:18:46;;;;;;;9.52;4.93;;;;;;;29.47;36.48;155372.56;5023384;28;20030;-82
2023/05/06 08:21:12;;;;;;;14.98;4.82;;;;;;;29.94;35.79;155489.00;5029602;28;20471;-84
2023/05/06 08:23:38;;;;;;;10.45;6.25;;;;;;;30.05;35.89;155518.13;5037820;28;20026;-85
2023/05/06 08:26:03;;;;;;;13.43;7.03;;;;;;;28.95;37.38;155242.28;5029985;28;20045;-83
2023/05/06 08:28:29;;;;;;;8.85;6.57;;;;;;;28.58;39.64;155149.91;5027366;28;20046;-85
2023/05/06 08:30:54;;;;;;;22.42;6.80;;;;;;;28.98;38.25;155249.84;5022649;28;20029;-85
2023/05/06 08:33:20;;;;;;;12.43;6.85;;;;;;;30.22;36.90;155559.88;5034858;28;20079;-83
2023/05/06 08:35:46;;;;;;;12.07;7.60;;;;;;;30.59;36.33;155652.34;5026597;28;20129;-84
2023/05/06 08:38:12;;;;;;;17.95;11.23;;;;;;;29.84;37.20;155464.97;5023121;28;20022;-86
2023/05/06 09:07:37;;;;;;;;;;;;;;;29.51;40.80;155382.69;5754500;22;20049;-82
2023/05/06 09:10:11;;;;;;;29.13;22.13;;;;;;;29.22;41.61;155309.31;5025271;28;20267;-84
2023/05/06 09:12:37;;;;;;;27.13;21.67;;;;;;;29.70;40.65;155429.50;5028076;28;20057;-85
2023/05/06 09:15:04;;;;;;;34.65;24.13;;;;;;;29.26;41.26;155318.22;5021785;28;20069;-83
2023/05/06 09:17:35;;;;;;;35.03;23.83;;;;;;;29.09;42.87;155277.69;5030121;22;20053;-83
2023/05/06 09:20:10;;;;;;;;;;;;;;;;;;;;;
2023/05/06 09:23:00;;;;;;;44.65;26.70;;;;;;;29.44;42.62;155363.72;5012528;28;20503;-83
2023/05/06 09:25:25;;;;;;;40.65;26.67;;;;;;;29.37;43.44;155346.00;4997299;28;20034;-83
2023/05/06 09:28:03;;;;;;;39.67;25.70;;;;;;;29.75;42.15;155442.16;5011906;28;20032;-84
2023/05/06 09:30:28;;;;;;;41.38;27.88;;;;;;;29.71;42.82;155432.03;5001991;28;20068;-83
2023/05/06 09:32:54;;;;;;;39.28;27.15;;;;;;;29.80;42.80;155454.78;5012737;28;20034;-85
2023/05/06 09:35:43;;;;;;;38.33;25.67;;;;;;;30.53;42.37;155637.09;4999355;28;20127;-85
2023/05/06 09:38:09;;;;;;;49.03;26.42;;;;;;;30.77;41.57;155699.13;5008329;28;20049;-83
2023/05/06 09:40:38;;;;;;;41.10;28.02;;;;;;;30.16;41.77;155545.94;5012386;28;20034;-83
2023/05/06 09:43:04;;;;;;;36.65;27.20;;;;;;;30.89;40.24;155727.00;5001932;28;20045;-84
2023/05/06 09:45:30;;;;;;;44.13;30.20;;;;;;;30.89;40.58;155728.22;5013416;28;20073;-83
2023/05/06 09:47:57;;;;;;;38.75;26.00;;;;;;;30.63;41.20;155663.69;5013439;28;20128;-83
2023/05/06 09:50:24;;;;;;;37.75;25.27;;;;;;;30.82;40.38;155710.56;5010025;28;20037;-84
2023/05/06 09:52:50;;;;;;;36.08;27.13;;;;;;;30.09;42.72;155528.25;5013036;28;20034;-84
2023/05/06 09:55:20;;;;;;;32.30;23.60;;;;;;;31.24;40.38;155816.94;5011381;28;20494;-80
2023/05/06 09:57:49;;;;;;;39.78;26.42;;;;;;;30.14;41.68;155540.91;5013382;28;20038;-83
2023/05/06 10:00:18;;;;;;;35.05;27.00;;;;;;;29.38;43.65;155348.53;5013130;28;20045;-85
2023/05/06 10:02:44;;;;;;;35.58;23.63;;;;;;;29.35;42.12;155340.97;5010634;28;20038;-81
2023/05/06 10:05:11;;;;;;;31.23;22.77;;;;;;;29.01;43.41;155257.44;5013178;28;20034;-81
2023/05/06 10:07:38;;;;;;;37.38;23.38;;;;;;;29.18;44.06;155299.19;5013008;28;20038;-85
2023/05/06 10:10:07;;;;;;;26.63;19.98;;;;;;;30.10;40.57;155529.50;5014552;28;20034;-86
2023/05/06 10:12:34;;;;;;;23.13;16.88;;;;;;;31.46;36.74;155870.09;5014875;28;20065;-85
2023/05/06 10:15:00;;;;;;;30.40;18.40;;;;;;;30.97;37.59;155747.28;5013932;28;20033;-84
2023/05/06 10:17:26;;;;;;;25.95;21.02;;;;;;;31.02;38.39;155761.25;5013609;28;20038;-86
2023/05/06 10:19:57;;;;;;;78.55;24.90;;;;;;;30.53;40.38;155637.09;5013210;28;20042;-84
2023/05/06 10:22:39;;;;;;;32.55;23.52;;;;;;;29.75;43.10;155443.44;5014098;28;20041;-84
2023/05/06 10:25:27;;;;;;;27.67;21.85;;;;;;;30.76;40.84;155695.31;5014087;28;20565;-83
2023/05/06 10:27:52;;;;;;;34.33;24.17;;;;;;;30.92;40.37;155735.88;5012632;28;20125;-84
2023/05/06 10:30:18;;;;;;;32.70;24.38;;;;;;;30.44;40.47;155615.59;5013488;28;20467;-83
2023/05/06 10:32:45;;;;;;;31.98;20.92;;;;;;;30.77;39.44;155699.13;5005113;28;20037;-83
2023/05/06 10:35:19;;;;;;;28.40;20.45;;;;;;;30.36;40.21;155595.28;5006221;28;20030;-84
2023/05/06 10:37:49;;;;;;;28.05;21.40;;;;;;;30.29;40.11;155576.34;5003347;28;20495;-83
2023/05/06 10:40:15;;;;;;;26.90;19.50;;;;;;;29.77;42.86;155448.47;5032371;28;20046;-85
2023/05/06 10:42:41;;;;;;;29.65;21.60;;;;;;;29.90;41.40;155478.88;5014988;28;20038;-85
2023/05/06 10:45:08;;;;;;;29.23;22.45;;;;;;;30.39;42.80;155602.94;5017215;28;20038;-84
2023/05/06 10:47:55;;;;;;;35.85;16.90;;;;;;;30.90;41.70;155730.78;5001136;28;20041;-81
2023/05/06 10:50:23;;;;;;;29.45;21.35;;;;;;;30.25;42.13;155568.75;5020062;28;20125;-85
2023/05/06 10:53:00;;;;;;;30.38;19.10;;;;;;;29.76;40.82;155444.72;5013461;28;20503;-86
2023/05/06 10:55:36;;;;;;;23.77;18.25;;;;;;;29.38;41.55;155348.53;5018407;28;20045;-86
2023/05/06 10:58:13;;;;;;;26.92;18.48;;;;;;;29.97;42.19;155497.88;5028614;28;20033;-81
2023/05/06 11:00:53;;;;;;;20.13;13.20;;;;;;;30.74;37.93;155690.28;5010404;28;20459;-85
2023/05/06 11:03:27;;;;;;;24.92;16.13;;;;;;;30.55;38.06;155642.19;5019752;28;20030;-85
2023/05/06 11:05:53;;;;;;;25.55;15.15;;;;;;;30.72;38.49;155685.22;5017334;28;20101;-85
2023/05/06 11:08:25;;;;;;;28.88;17.60;;;;;;;30.88;37.76;155725.72;5015933;28;20128;-88
2023/05/06 11:10:52;;;;;;;26.40;17.70;;;;;;;30.95;37.65;155743.47;5015322;28;20064;-86
2023/05/06 11:13:23;;;;;;;28.48;18.13;;;;;;;31.37;37.86;155847.31;5009791;28;20062;-83
2023/05/06 11:15:50;;;;;;;23.10;17.10;;;;;;;30.85;38.94;155718.13;5013711;28;20034;-80
2023/05/06 11:18:26;;;;;;;22.77;16.85;;;;;;;30.86;38.16;155719.41;5007803;28;20611;-81
2023/05/06 11:21:19;;;;;;;29.80;17.98;;;;;;;29.59;41.35;155401.69;5005337;28;20038;-81
2023/05/06 11:23:51;;;;;;;31.17;20.70;;;;;;;29.56;41.82;155394.09;5015115;28;20486;-80
2023/05/06 11:26:16;;;;;;;30.85;20.45;;;;;;;29.18;43.54;155300.44;5008007;28;20126;-81
2023/05/06 11:28:46;;;;;;;27.48;19.40;;;;;;;29.54;42.59;155389.00;5006258;28;20121;-80
2023/05/06 11:31:13;;;;;;;29.02;20.73;;;;;;;29.15;44.27;155292.88;5010416;28;20030;-81
2023/05/06 11:33:46;;;;;;;26.67;17.65;;;;;;;28.73;44.70;155186.66;5007580;28;20052;-83
2023/05/06 11:36:18;;;;;;;27.65;17.05;;;;;;;28.43;42.22;155112.00;5013396;28;20030;-86
2023/05/06 11:38:48;;;;;;;21.38;15.68;;;;;;;27.66;45.64;154918.56;5011274;28;20479;-83
2023/05/06 11:41:21;;;;;;;23.13;16.98;;;;;;;27.72;46.28;154933.72;4998695;28;20053;-83
2023/05/06 11:43:52;;;;;;;27.17;19.23;;;;;;;27.23;47.22;154811.13;4987086;28;20526;-90
2023/05/06 11:46:19;;;;;;;23.38;16.15;;;;;;;27.17;48.66;154795.97;5017476;28;20056;-89
2023/05/06 11:48:45;;;;;;;22.67;16.58;;;;;;;27.39;49.09;154851.53;5009612;28;20093;-89
2023/05/06 11:51:10;;;;;;;26.50;18.13;;;;;;;27.17;48.98;154797.25;5011160;28;20029;-86